KBQX

Brazos 451 Oil Platform

Brazos 451, Texas, USA
METAR KBQX 241335Z AUTO 00000KT 10SM CLR 28/24 A3005 RMK A01
Observed Flight Rules
May-24 @ 13:35 UTC (18 minutes ago) Visual Flight Rules
Visibility Clouds
10 miles
  • Clear skies
Temperatures Readings
Current 28°C / 82°F
Dewpoint 24°C / 75°F
Humidity 79%
Altimeter 30.05" Hg
Pressure 1018 hPa
Elevation 34
METAR KBQX 241335Z AUTO 00000KT 10SM CLR 28/24 A3005 RMK A01
Observed Flight Rules
May-24 @ 13:35 UTC
(18 minutes ago)
VFR
Clouds
  • Clear skies
Temperature Dewpoint
28°C / 82°F 24°C / 75°F
Humidity Altimeter Pressure
79% 30.05" Hg 1018 hPa